Time;durP1;ratioP1;P1;durP2;ratioP2;P2;SDS_P1;SDS_P2;PMS_P1;PMS_P2;Temp;Humidity;BMP_temperature;BMP_pressure;BME280_temperature;BME280_humidity;BME280_pressure;Samples;Min_cycle;Max_cycle;Signal;HPM_P1;HPM_P2
2022/04/06 00:02:40;;;;;;;;;;;7.80;99.90;;;;;;2199890;65;20077;-87
2022/04/06 00:05:17;;;;;;;;;;;7.80;99.90;;;;;;2206014;65;20078;-87
2022/04/06 00:07:51;;;;;;;;;;;8.10;99.90;;;;;;2199695;65;20172;-88
2022/04/06 00:10:31;;;;;;;;;;;7.90;99.90;;;;;;2204131;65;20151;-88
2022/04/06 00:13:07;;;;;;;;;;;7.80;99.90;;;;;;2206410;65;20121;-86
2022/04/06 00:15:49;;;;;;;;;;;7.90;99.90;;;;;;2185215;65;20111;-87
2022/04/06 00:18:31;;;;;;;;;;;7.90;99.90;;;;;;2186197;65;20064;-88
2022/04/06 00:21:15;;;;;;;;;;;7.90;99.90;;;;;;2177837;65;20265;-87
2022/04/06 00:24:01;;;;;;;;;;;7.90;99.90;;;;;;2152541;66;20198;-85
2022/04/06 00:26:46;;;;;;;;;;;7.90;99.90;;;;;;2142322;66;20048;-87
2022/04/06 00:29:27;;;;;;;;;;;7.90;99.90;;;;;;2133138;67;20166;-87
2022/04/06 00:32:10;;;;;;;;;;;7.90;99.90;;;;;;2133846;67;20079;-87
2022/04/06 00:37:53;;;;;;;;;;;7.90;99.90;;;;;;2121864;67;20138;-86
2022/04/06 00:40:36;;;;;;;;;;;7.90;99.90;;;;;;2123631;67;20133;-87
2022/04/06 00:43:19;;;;;;;;;;;7.90;99.90;;;;;;2113328;67;20259;-87
2022/04/06 00:46:04;;;;;;;;;;;7.90;99.90;;;;;;2118740;67;20101;-86
2022/04/06 00:48:50;;;;;;;;;;;8.00;99.90;;;;;;2109411;67;20185;-87
2022/04/06 00:51:42;;;;;;;;;;;7.90;99.90;;;;;;2111902;67;20075;-86
2022/04/06 00:54:25;;;;;;;;;;;8.00;99.90;;;;;;2118499;67;20129;-86
2022/04/06 00:57:09;;;;;;;;;;;8.00;99.90;;;;;;2129715;67;20060;-85
2022/04/06 00:59:51;;;;;;;;;;;7.90;99.90;;;;;;2133023;67;20211;-87
2022/04/06 01:02:33;;;;;;;;;;;8.00;99.90;;;;;;2124076;67;20061;-86
2022/04/06 01:05:15;;;;;;;;;;;8.00;99.90;;;;;;2128773;67;20218;-87
2022/04/06 01:07:56;;;;;;;;;;;8.10;99.90;;;;;;2120486;67;21171;-86
2022/04/06 01:10:38;;;;;;;;;;;8.10;99.90;;;;;;2126847;67;20061;-86
2022/04/06 01:13:23;;;;;;;;;;;8.10;99.90;;;;;;2126864;67;20341;-85
2022/04/06 01:16:12;;;;;;;;;;;8.10;99.90;;;;;;2118983;67;20124;-85
2022/04/06 01:18:57;;;;;;;;;;;8.10;99.90;;;;;;2119308;67;20171;-86
2022/04/06 01:21:45;;;;;;;;;;;8.10;99.90;;;;;;2096450;68;20727;-86
2022/04/06 01:24:26;;;;;;;;;;;8.10;99.90;;;;;;2098765;68;20123;-85
2022/04/06 01:27:08;;;;;;;;;;;8.20;99.90;;;;;;2100727;68;20074;-86
2022/04/06 01:29:51;;;;;;;;;;;8.10;99.90;;;;;;2106890;67;20124;-85
2022/04/06 01:32:35;;;;;;;;;;;8.10;99.90;;;;;;2112474;67;20131;-85
2022/04/06 01:35:12;;;;;;;;;;;8.20;99.90;;;;;;2112891;67;20768;-85
2022/04/06 01:38:02;;;;;;;;;;;8.20;99.90;;;;;;2112609;67;20559;-85
2022/04/06 01:40:38;;;;;;;;;;;8.20;99.90;;;;;;2115394;67;20229;-85
2022/04/06 01:43:16;;;;;;;;;;;8.20;99.90;;;;;;2113086;67;20125;-85
2022/04/06 01:45:54;;;;;;;;;;;8.20;99.90;;;;;;2127340;67;20569;-84
2022/04/06 01:48:32;;;;;;;;;;;8.20;99.90;;;;;;2128035;67;20073;-86
2022/04/06 01:54:05;;;;;;;;;;;8.20;99.90;;;;;;2121330;67;20137;-85
2022/04/06 01:56:34;;;;;;;;;;;8.20;99.90;;;;;;2151934;66;20046;-86
2022/04/06 01:59:10;;;;;;;;;;;8.20;99.90;;;;;;2160209;66;20105;-85
2022/04/06 02:01:52;;;;;;;;;;;8.20;99.90;;;;;;2193990;65;20090;-86
2022/04/06 02:04:31;;;;;;;;;;;8.20;99.90;;;;;;2205617;65;20053;-83
2022/04/06 02:07:23;;;;;;;;;;;8.20;99.90;;;;;;2205176;65;20070;-86
2022/04/06 02:10:02;;;;;;;;;;;8.20;99.90;;;;;;2204642;65;20053;-85
2022/04/06 02:12:57;;;;;;;;;;;8.20;99.90;;;;;;2203106;65;20061;-85
2022/04/06 02:15:39;;;;;;;;;;;8.20;99.90;;;;;;2202025;65;20050;-85
2022/04/06 02:18:20;;;;;;;;;;;8.30;99.90;;;;;;2198921;65;20194;-84
2022/04/06 02:20:58;;;;;;;;;;;8.30;99.90;;;;;;2201542;65;20555;-84
2022/04/06 02:23:34;;;;;;;;;;;8.30;99.90;;;;;;2201107;65;20222;-85
2022/04/06 02:26:10;;;;;;;;;;;8.20;99.90;;;;;;2203047;65;20056;-85
2022/04/06 02:29:02;;;;;;;;;;;8.20;99.90;;;;;;2201825;65;20054;-85
2022/04/06 02:31:41;;;;;;;;;;;8.20;99.90;;;;;;2207703;65;20096;-86
2022/04/06 02:34:23;;;;;;;;;;;8.20;99.90;;;;;;2202143;65;20122;-82
2022/04/06 02:37:09;;;;;;;;;;;8.20;99.90;;;;;;2193768;65;20097;-85
2022/04/06 02:39:50;;;;;;;;;;;8.20;99.90;;;;;;2190477;65;20116;-86
2022/04/06 02:42:33;;;;;;;;;;;8.10;99.90;;;;;;2181180;65;20183;-86
2022/04/06 02:45:18;;;;;;;;;;;8.10;99.90;;;;;;2171095;66;20144;-84
2022/04/06 02:47:59;;;;;;;;;;;8.10;99.90;;;;;;2163922;66;20549;-86
2022/04/06 02:50:41;;;;;;;;;;;8.20;99.90;;;;;;2156223;66;20176;-86
2022/04/06 02:53:25;;;;;;;;;;;8.10;99.90;;;;;;2148856;66;20269;-86
2022/04/06 02:56:09;;;;;;;;;;;8.10;99.90;;;;;;2134124;67;20140;-87
2022/04/06 02:58:51;;;;;;;;;;;8.10;99.90;;;;;;2134689;67;20059;-88
2022/04/06 03:01:33;;;;;;;;;;;8.00;99.90;;;;;;2128151;67;20133;-88
2022/04/06 03:04:15;;;;;;;;;;;8.00;99.90;;;;;;2113567;67;20551;-86
2022/04/06 03:06:58;;;;;;;;;;;8.00;99.90;;;;;;2106496;68;20173;-85
2022/04/06 03:09:34;;;;;;;;;;;8.00;99.90;;;;;;2098729;68;20076;-86
2022/04/06 03:12:11;;;;;;;;;;;8.00;99.90;;;;;;2099432;68;20200;-84
2022/04/06 03:14:50;;;;;;;;;;;8.00;99.90;;;;;;2104095;67;20082;-86
2022/04/06 03:17:27;;;;;;;;;;;8.00;99.90;;;;;;2106779;67;20105;-87
2022/04/06 03:20:20;;;;;;;;;;;8.50;99.90;;;;;;2099472;68;20051;-86
2022/04/06 03:22:56;;;;;;;;;;;8.00;99.90;;;;;;2111331;67;20193;-87
2022/04/06 03:25:32;;;;;;;;;;;7.90;99.90;;;;;;2126710;67;20079;-87
2022/04/06 03:28:11;;;;;;;;;;;7.90;99.90;;;;;;2134419;67;20075;-86
2022/04/06 03:30:49;;;;;;;;;;;8.00;99.90;;;;;;2147467;66;20646;-86
2022/04/06 03:33:26;;;;;;;;;;;7.90;99.90;;;;;;2160598;66;20057;-86
2022/04/06 03:36:02;;;;;;;;;;;8.00;99.90;;;;;;2163068;66;20065;-84
2022/04/06 03:38:55;;;;;;;;;;;8.00;99.90;;;;;;2167313;66;20066;-82
2022/04/06 03:41:32;;;;;;;;;;;8.00;99.90;;;;;;2185398;65;20182;-86
2022/04/06 03:44:11;;;;;;;;;;;8.00;99.90;;;;;;2201418;65;20616;-87
2022/04/06 03:47:01;;;;;;;;;;;8.10;99.90;;;;;;2196211;65;20064;-86
2022/04/06 03:49:39;;;;;;;;;;;8.10;99.90;;;;;;2194532;65;20095;-86
2022/04/06 03:52:16;;;;;;;;;;;8.10;99.90;;;;;;2195008;65;20677;-85
2022/04/06 03:54:54;;;;;;;;;;;8.10;99.90;;;;;;2190659;65;20090;-88
2022/04/06 03:57:29;;;;;;;;;;;8.10;99.90;;;;;;2196886;65;20543;-89
2022/04/06 04:00:05;;;;;;;;;;;8.10;99.90;;;;;;2203647;65;20037;-89
2022/04/06 04:02:41;;;;;;;;;;;8.00;99.90;;;;;;2200974;65;20071;-90
2022/04/06 04:05:31;;;;;;;;;;;7.90;99.90;;;;;;2188663;65;20187;-88
2022/04/06 04:08:11;;;;;;;;;;;7.80;99.90;;;;;;2186949;65;20591;-91
2022/04/06 04:10:55;;;;;;;;;;;7.80;99.90;;;;;;2188491;65;20634;-90
2022/04/06 04:13:41;;;;;;;;;;;7.80;99.90;;;;;;2179453;65;20307;-89
2022/04/06 04:16:25;;;;;;;;;;;7.70;99.90;;;;;;2171126;66;20612;-87
2022/04/06 04:19:06;;;;;;;;;;;7.70;99.90;;;;;;2166235;66;20096;-87
2022/04/06 04:21:48;;;;;;;;;;;7.70;99.90;;;;;;2164668;66;20158;-88
2022/04/06 04:24:32;;;;;;;;;;;7.70;99.90;;;;;;2170028;66;20302;-86
2022/04/06 04:27:16;;;;;;;;;;;7.80;99.90;;;;;;2168645;66;20192;-87
2022/04/06 04:30:00;;;;;;;;;;;7.70;99.90;;;;;;2160179;66;20097;-90
2022/04/06 04:32:44;;;;;;;;;;;7.70;99.90;;;;;;2173354;66;20145;-88
2022/04/06 04:35:27;;;;;;;;;;;8.00;99.90;;;;;;2160622;66;20097;-83
2022/04/06 04:38:11;;;;;;;;;;;7.70;99.90;;;;;;2142946;67;20055;-89
2022/04/06 04:40:55;;;;;;;;;;;7.70;99.90;;;;;;2138547;67;20076;-85
2022/04/06 04:43:40;;;;;;;;;;;7.70;99.90;;;;;;2134332;67;20068;-86
2022/04/06 04:46:24;;;;;;;;;;;7.70;99.90;;;;;;2128118;67;20200;-88
2022/04/06 04:49:06;;;;;;;;;;;7.70;99.90;;;;;;2120167;67;20057;-84
2022/04/06 04:51:51;;;;;;;;;;;7.70;99.90;;;;;;2126487;67;20074;-88
2022/04/06 04:54:32;;;;;;;;;;;7.80;99.90;;;;;;2119778;67;20568;-87
2022/04/06 04:57:15;;;;;;;;;;;7.70;99.90;;;;;;2113217;67;20203;-87
2022/04/06 05:00:00;;;;;;;;;;;7.70;99.90;;;;;;2112836;67;20270;-84
2022/04/06 05:02:46;;;;;;;;;;;7.80;99.90;;;;;;2113116;67;20075;-86
2022/04/06 05:05:34;;;;;;;;;;;7.80;99.90;;;;;;2106174;68;20054;-89
2022/04/06 05:08:25;;;;;;;;;;;7.80;99.90;;;;;;2116127;67;20162;-88
2022/04/06 05:11:11;;;;;;;;;;;7.90;99.90;;;;;;2130731;67;20174;-88
2022/04/06 05:13:56;;;;;;;;;;;7.70;99.90;;;;;;2129705;67;20168;-87
2022/04/06 05:16:41;;;;;;;;;;;7.70;99.90;;;;;;2129663;67;20271;-87
2022/04/06 05:19:23;;;;;;;;;;;7.80;99.90;;;;;;2109138;67;20212;-88
2022/04/06 05:22:06;;;;;;;;;;;7.70;99.90;;;;;;2117383;67;20070;-86
2022/04/06 05:24:47;;;;;;;;;;;7.70;99.90;;;;;;2123819;67;20238;-87
2022/04/06 05:27:29;;;;;;;;;;;7.80;99.90;;;;;;2125781;67;20108;-86
2022/04/06 05:30:13;;;;;;;;;;;7.70;99.90;;;;;;2120372;67;20250;-87
2022/04/06 05:32:59;;;;;;;;;;;7.70;99.90;;;;;;2126983;67;20057;-88
2022/04/06 05:35:43;;;;;;;;;;;7.70;99.90;;;;;;2123721;67;20071;-86
2022/04/06 05:38:25;;;;;;;;;;;7.70;99.90;;;;;;2113898;67;20079;-87
2022/04/06 05:41:08;;;;;;;;;;;7.70;99.90;;;;;;2117226;67;20658;-89
2022/04/06 05:43:54;;;;;;;;;;;7.70;99.90;;;;;;2121534;67;20148;-85
2022/04/06 05:46:41;;;;;;;;;;;7.70;99.90;;;;;;2120600;67;20053;-84
2022/04/06 05:49:24;;;;;;;;;;;7.70;99.90;;;;;;2107333;68;20016;-85
2022/04/06 05:52:09;;;;;;;;;;;7.70;99.90;;;;;;2100210;68;20103;-85
2022/04/06 05:54:59;;;;;;;;;;;7.80;99.90;;;;;;2106341;68;20184;-85
2022/04/06 05:57:40;;;;;;;;;;;7.70;99.90;;;;;;2090999;68;20272;-88
2022/04/06 06:00:22;;;;;;;;;;;7.70;99.90;;;;;;2091449;68;20224;-90
2022/04/06 06:03:06;;;;;;;;;;;7.70;99.90;;;;;;2115374;67;20160;-86
2022/04/06 06:05:48;;;;;;;;;;;7.70;99.90;;;;;;2128974;67;20057;-87
2022/04/06 06:08:30;;;;;;;;;;;7.70;99.90;;;;;;2126352;67;20119;-87
2022/04/06 06:11:12;;;;;;;;;;;7.70;99.90;;;;;;2127508;67;20139;-87
2022/04/06 06:13:54;;;;;;;;;;;7.70;99.90;;;;;;2120689;67;20291;-86
2022/04/06 06:16:35;;;;;;;;;;;7.70;99.90;;;;;;2148447;66;20253;-83
2022/04/06 06:19:17;;;;;;;;;;;7.70;99.90;;;;;;2157066;66;20126;-85
2022/04/06 06:21:58;;;;;;;;;;;7.70;99.90;;;;;;2151011;66;20070;-86
2022/04/06 06:24:40;;;;;;;;;;;7.70;99.90;;;;;;2137332;67;20064;-87
2022/04/06 06:27:25;;;;;;;;;;;8.10;99.90;;;;;;2124334;67;20057;-84
2022/04/06 06:30:08;;;;;;;;;;;7.70;99.90;;;;;;2120910;67;20265;-84
2022/04/06 06:32:48;;;;;;;;;;;7.70;99.90;;;;;;2113325;67;20191;-82
2022/04/06 06:35:25;;;;;;;;;;;7.70;99.90;;;;;;2124775;67;20072;-87
2022/04/06 06:38:04;;;;;;;;;;;7.80;99.90;;;;;;2125373;67;20133;-85
2022/04/06 06:40:41;;;;;;;;;;;7.70;99.90;;;;;;2114295;67;20235;-85
2022/04/06 06:43:21;;;;;;;;;;;7.70;99.90;;;;;;2120699;67;20198;-87
2022/04/06 06:46:14;;;;;;;;;;;7.70;99.90;;;;;;2137623;67;20579;-85
2022/04/06 06:48:52;;;;;;;;;;;7.70;99.90;;;;;;2142132;67;20141;-84
2022/04/06 06:51:33;;;;;;;;;;;7.70;99.90;;;;;;2138115;67;20251;-87
2022/04/06 06:54:10;;;;;;;;;;;7.70;99.90;;;;;;2155771;66;20144;-89
2022/04/06 06:56:50;;;;;;;;;;;7.70;99.90;;;;;;2167431;66;20187;-84
2022/04/06 06:59:30;;;;;;;;;;;7.70;99.90;;;;;;2169264;66;20060;-87
2022/04/06 07:02:09;;;;;;;;;;;7.70;99.90;;;;;;2164493;66;20143;-84
2022/04/06 07:04:46;;;;;;;;;;;7.70;99.90;;;;;;2173225;65;20059;-85
2022/04/06 07:07:56;;;;;;;;;;;7.70;99.90;;;;;;2191054;65;20140;-85
2022/04/06 07:10:32;;;;;;;;;;;7.70;99.90;;;;;;2201750;65;20063;-81
2022/04/06 07:13:12;;;;;;;;;;;7.70;99.90;;;;;;2201759;65;20090;-82
2022/04/06 07:15:45;;;;;;;;;;;7.60;99.90;;;;;;2192208;65;20086;-84
2022/04/06 07:18:23;;;;;;;;;;;7.70;99.90;;;;;;2198685;65;20072;-83
2022/04/06 07:21:01;;;;;;;;;;;7.70;99.90;;;;;;2198169;65;20050;-85
2022/04/06 07:23:40;;;;;;;;;;;7.70;99.90;;;;;;2206416;64;20079;-88
2022/04/06 07:26:12;;;;;;;;;;;7.70;99.90;;;;;;2198860;65;20186;-87
2022/04/06 07:28:44;;;;;;;;;;;7.70;99.90;;;;;;2213137;64;20565;-89
2022/04/06 07:31:21;;;;;;;;;;;7.70;99.90;;;;;;2216198;64;20197;-85
2022/04/06 07:34:02;;;;;;;;;;;7.70;99.90;;;;;;2201824;65;20041;-86
2022/04/06 07:36:45;;;;;;;;;;;7.70;99.90;;;;;;2196881;65;20058;-86
2022/04/06 07:39:29;;;;;;;;;;;7.70;99.90;;;;;;2196823;65;20093;-85
2022/04/06 07:42:11;;;;;;;;;;;7.70;99.90;;;;;;2192806;65;20235;-86
2022/04/06 07:44:53;;;;;;;;;;;7.70;99.90;;;;;;2163792;66;20151;-81
2022/04/06 07:47:35;;;;;;;;;;;7.70;99.90;;;;;;2164089;66;20089;-83
2022/04/06 07:50:17;;;;;;;;;;;7.70;99.90;;;;;;2158453;66;20219;-84
2022/04/06 07:52:58;;;;;;;;;;;7.70;99.90;;;;;;2158229;66;20095;-80
2022/04/06 07:55:44;;;;;;;;;;;7.70;99.90;;;;;;2150696;66;21879;-83
2022/04/06 07:58:25;;;;;;;;;;;7.70;99.90;;;;;;2143792;66;20319;-84
2022/04/06 08:01:08;;;;;;;;;;;7.80;99.90;;;;;;2128685;67;20108;-84
2022/04/06 08:03:51;;;;;;;;;;;7.80;99.90;;;;;;2123066;67;20073;-81
2022/04/06 08:06:35;;;;;;;;;;;7.80;99.90;;;;;;2111813;67;20327;-85
2022/04/06 08:09:17;;;;;;;;;;;7.80;99.90;;;;;;2103511;68;20217;-83
2022/04/06 08:11:58;;;;;;;;;;;7.80;99.90;;;;;;2111443;67;20193;-82
2022/04/06 08:14:40;;;;;;;;;;;7.80;99.90;;;;;;2113458;67;20065;-82
2022/04/06 08:17:23;;;;;;;;;;;7.80;99.90;;;;;;2126196;67;20145;-83
2022/04/06 08:20:08;;;;;;;;;;;7.70;99.90;;;;;;2114857;67;20220;-82
2022/04/06 08:22:52;;;;;;;;;;;7.80;99.90;;;;;;2127781;67;20072;-83
2022/04/06 08:25:34;;;;;;;;;;;7.80;99.90;;;;;;2125601;66;20084;-85
2022/04/06 08:28:16;;;;;;;;;;;7.80;99.90;;;;;;2142488;66;20091;-86
2022/04/06 08:30:59;;;;;;;;;;;7.80;99.90;;;;;;2126065;67;20280;-82
2022/04/06 08:33:45;;;;;;;;;;;7.80;99.90;;;;;;2127325;67;20197;-83
2022/04/06 08:36:30;;;;;;;;;;;7.80;99.90;;;;;;2118380;67;20634;-82
2022/04/06 08:39:14;;;;;;;;;;;7.80;99.90;;;;;;2133404;67;20417;-85
2022/04/06 08:41:56;;;;;;;;;;;7.80;99.90;;;;;;2123710;67;20383;-84
2022/04/06 08:44:38;;;;;;;;;;;7.90;99.90;;;;;;2130266;67;20167;-85
2022/04/06 08:47:18;;;;;;;;;;;8.20;99.90;;;;;;2137991;67;20130;-83
2022/04/06 08:49:57;;;;;;;;;;;7.80;99.90;;;;;;2138355;66;20513;-85
2022/04/06 08:52:33;;;;;;;;;;;7.90;99.90;;;;;;2135874;66;20055;-85
2022/04/06 08:55:03;;;;;;;;;;;8.00;99.90;;;;;;2138004;66;20071;-86
2022/04/06 08:57:33;;;;;;;;;;;8.00;99.90;;;;;;2133764;66;20188;-75
2022/04/06 09:00:15;;;;;;;;;;;8.10;99.90;;;;;;2151241;66;20164;-80
2022/04/06 09:02:53;;;;;;;;;;;8.10;99.90;;;;;;2165427;66;20182;-85
2022/04/06 09:05:32;;;;;;;;;;;8.10;99.90;;;;;;2164727;66;20160;-86
2022/04/06 09:08:14;;;;;;;;;;;8.10;99.90;;;;;;2170899;66;20056;-88
2022/04/06 09:11:06;;;;;;;;;;;8.20;99.90;;;;;;2171319;65;20478;-88
2022/04/06 09:13:39;;;;;;;;;;;8.10;99.90;;;;;;2192950;65;20042;-86
2022/04/06 09:16:16;;;;;;;;;;;8.20;99.90;;;;;;2202039;64;20109;-85
2022/04/06 09:18:52;;;;;;;;;;;8.30;99.90;;;;;;2212430;64;20260;-84
2022/04/06 09:21:49;;;;;;;;;;;8.40;99.90;;;;;;2196748;65;20089;-87
2022/04/06 09:24:26;;;;;;;;;;;8.50;99.90;;;;;;2201742;65;20222;-85
2022/04/06 09:30:07;;;;;;;;;;;8.70;99.90;;;;;;2198062;65;20064;-87
2022/04/06 09:33:22;;;;;;;;;;;8.80;99.90;;;;;;2183718;65;20073;-84
2022/04/06 09:36:21;;;;;;;;;;;8.90;99.90;;;;;;2174868;65;20055;-85
2022/04/06 09:38:57;;;;;;;;;;;9.10;99.90;;;;;;2178607;65;20105;-82
2022/04/06 09:41:55;;;;;;;;;;;9.20;99.90;;;;;;2193406;65;20071;-87
2022/04/06 09:47:53;;;;;;;;;;;9.30;99.90;;;;;;2178603;65;20256;-83
2022/04/06 09:50:56;;;;;;;;;;;9.40;99.90;;;;;;2166098;66;20132;-80
2022/04/06 09:53:41;;;;;;;;;;;9.40;99.90;;;;;;2164780;66;20450;-80
2022/04/06 09:56:45;;;;;;;;;;;9.40;99.90;;;;;;2155191;66;20108;-82
2022/04/06 09:59:29;;;;;;;;;;;9.40;99.90;;;;;;2147568;66;20088;-82
2022/04/06 10:02:15;;;;;;;;;;;9.40;99.90;;;;;;2127656;67;20134;-84
2022/04/06 10:05:02;;;;;;;;;;;9.40;99.90;;;;;;2113801;67;20157;-81
2022/04/06 10:07:48;;;;;;;;;;;9.40;99.90;;;;;;2112591;67;20136;-80
2022/04/06 10:10:30;;;;;;;;;;;9.50;99.90;;;;;;2107647;67;20165;-78
2022/04/06 10:13:12;;;;;;;;;;;9.50;99.90;;;;;;2114926;67;20074;-78
2022/04/06 10:15:54;;;;;;;;;;;9.40;99.90;;;;;;2117927;67;20134;-84
2022/04/06 10:18:39;;;;;;;;;;;9.70;99.90;;;;;;2108509;67;20228;-82
2022/04/06 10:21:45;;;;;;;;;;;9.20;99.90;;;;;;2082716;68;20285;-77
2022/04/06 10:24:58;;;;;;;;;;;;;;;;;;;;;
2022/04/06 10:27:51;;;;;;;;;;;9.40;99.90;;;;;;2083365;68;20101;-78
2022/04/06 10:30:33;;;;;;;;;;;9.40;99.90;;;;;;2101295;67;20184;-81
2022/04/06 10:33:32;;;;;;;;;;;;;;;;;;;;;
2022/04/06 10:36:50;;;;;;;;;;;9.40;99.90;;;;;;2114494;67;20741;-82
2022/04/06 10:39:54;;;;;;;;;;;9.40;99.90;;;;;;2093504;68;20190;-81
2022/04/06 10:42:46;;;;;;;;;;;8.70;99.90;;;;;;2105238;68;20181;-79
2022/04/06 10:45:35;;;;;;;;;;;9.50;99.90;;;;;;2119588;67;20049;-80
2022/04/06 10:48:20;;;;;;;;;;;9.60;99.90;;;;;;2112494;67;20065;-82
2022/04/06 10:51:24;;;;;;;;;;;9.40;99.90;;;;;;2123043;67;20238;-79
2022/04/06 10:54:46;;;;;;;;;;;9.40;99.90;;;;;;2089974;68;20257;-82
2022/04/06 10:57:47;;;;;;;;;;;9.30;99.90;;;;;;2072611;68;20688;-77
2022/04/06 11:00:30;;;;;;;;;;;9.30;99.90;;;;;;2073329;68;20322;-79
2022/04/06 11:03:15;;;;;;;;;;;9.20;99.90;;;;;;2081569;68;20123;-80
2022/04/06 11:05:57;;;;;;;;;;;9.20;99.90;;;;;;2089416;68;20646;-81
2022/04/06 11:12:04;;;;;;;;;;;9.30;99.90;;;;;;2085968;68;20774;-80
2022/04/06 11:14:58;;;;;;;;;;;9.60;99.90;;;;;;2075146;68;20237;-80
2022/04/06 11:17:44;;;;;;;;;;;9.30;99.90;;;;;;2082375;68;20124;-80
2022/04/06 11:20:29;;;;;;;;;;;9.30;99.90;;;;;;2088669;68;20260;-80
2022/04/06 11:23:12;;;;;;;;;;;9.20;99.90;;;;;;2077685;68;20078;-81
2022/04/06 11:25:54;;;;;;;;;;;9.20;99.90;;;;;;2082635;68;20149;-79
2022/04/06 11:28:35;;;;;;;;;;;9.20;99.90;;;;;;2079934;68;20287;-80
2022/04/06 11:31:20;;;;;;;;;;;9.20;99.90;;;;;;2095322;68;20102;-80
2022/04/06 11:34:02;;;;;;;;;;;9.30;99.90;;;;;;2095434;68;20080;-79
2022/04/06 11:36:43;;;;;;;;;;;9.40;99.90;;;;;;2087722;68;20116;-82
2022/04/06 11:39:32;;;;;;;;;;;9.50;99.90;;;;;;2072472;69;20142;-80
2022/04/06 11:42:17;;;;;;;;;;;9.70;99.90;;;;;;2075843;69;20106;-80
2022/04/06 11:44:58;;;;;;;;;;;9.90;99.90;;;;;;2103164;68;20062;-83
2022/04/06 11:47:41;;;;;;;;;;;10.00;99.90;;;;;;2111782;67;20069;-83
2022/04/06 11:50:29;;;;;;;;;;;10.10;99.90;;;;;;2097781;68;20118;-79
2022/04/06 11:53:36;;;;;;;;;;;10.20;99.90;;;;;;2081335;68;20100;-79
2022/04/06 11:56:23;;;;;;;;;;;10.20;99.90;;;;;;2088931;68;20108;-79
2022/04/06 11:59:09;;;;;;;;;;;10.30;99.90;;;;;;2100494;68;20197;-80
2022/04/06 12:01:53;;;;;;;;;;;10.70;99.90;;;;;;2096357;68;20679;-81
2022/04/06 12:04:35;;;;;;;;;;;11.20;99.90;;;;;;2079362;68;20160;-80
2022/04/06 12:07:19;;;;;;;;;;;11.50;99.90;;;;;;2086644;68;20239;-83
2022/04/06 12:10:02;;;;;;;;;;;11.70;99.90;;;;;;2085004;68;20082;-81
2022/04/06 12:12:47;;;;;;;;;;;12.10;99.90;;;;;;2079659;68;20230;-80
2022/04/06 12:15:32;;;;;;;;;;;12.20;99.90;;;;;;2069964;69;20223;-79
2022/04/06 12:18:13;;;;;;;;;;;12.00;99.90;;;;;;2081789;68;20082;-80
2022/04/06 12:20:59;;;;;;;;;;;11.70;99.90;;;;;;2090395;68;20201;-88
2022/04/06 12:23:44;;;;;;;;;;;11.60;99.90;;;;;;2087318;68;20260;-80
2022/04/06 12:26:38;;;;;;;;;;;11.60;99.90;;;;;;2082484;68;20478;-78
2022/04/06 12:29:19;;;;;;;;;;;11.40;99.90;;;;;;2092417;68;20131;-81
2022/04/06 12:32:02;;;;;;;;;;;11.20;99.90;;;;;;2108121;67;20227;-81
2022/04/06 12:34:46;;;;;;;;;;;11.10;99.90;;;;;;2110585;67;20077;-86
2022/04/06 12:37:32;;;;;;;;;;;11.30;99.90;;;;;;2111311;67;20066;-82
2022/04/06 12:40:20;;;;;;;;;;;11.90;99.90;;;;;;2118418;67;20078;-81
2022/04/06 12:42:57;;;;;;;;;;;12.20;99.90;;;;;;2127521;67;20048;-80
2022/04/06 12:45:52;;;;;;;;;;;12.40;99.90;;;;;;2134561;67;20071;-82
2022/04/06 12:48:31;;;;;;;;;;;12.10;99.90;;;;;;2136258;67;20243;-77
2022/04/06 12:51:16;;;;;;;;;;;11.90;99.90;;;;;;2141627;66;20199;-77
2022/04/06 12:53:52;;;;;;;;;;;11.60;99.90;;;;;;2136515;66;20070;-80
2022/04/06 12:56:23;;;;;;;;;;;11.40;99.90;;;;;;2150672;66;20074;-79
2022/04/06 12:59:13;;;;;;;;;;;11.30;99.90;;;;;;2136282;66;20140;-78
2022/04/06 13:02:04;;;;;;;;;;;11.20;99.90;;;;;;2132796;67;20193;-79
2022/04/06 13:04:55;;;;;;;;;;;11.10;99.90;;;;;;2161891;66;20061;-78
2022/04/06 13:07:47;;;;;;;;;;;11.00;99.90;;;;;;2154918;66;20071;-78
2022/04/06 13:10:34;;;;;;;;;;;10.90;99.90;;;;;;2162913;66;20760;-81
2022/04/06 13:13:08;;;;;;;;;;;10.90;99.90;;;;;;2175000;65;20165;-82
2022/04/06 13:15:46;;;;;;;;;;;11.00;99.90;;;;;;2176631;65;20051;-79
2022/04/06 13:18:24;;;;;;;;;;;11.30;99.90;;;;;;2190749;65;20083;-78
2022/04/06 13:21:06;;;;;;;;;;;11.10;99.90;;;;;;2197573;64;20067;-88
2022/04/06 13:23:43;;;;;;;;;;;11.10;99.90;;;;;;2208970;64;20086;-81
2022/04/06 13:26:22;;;;;;;;;;;11.20;99.90;;;;;;2208169;65;20640;-78
2022/04/06 13:28:58;;;;;;;;;;;11.30;99.90;;;;;;2207717;64;20628;-80
2022/04/06 13:31:45;;;;;;;;;;;11.30;99.90;;;;;;2206049;64;20099;-79
2022/04/06 13:34:33;;;;;;;;;;;11.20;99.90;;;;;;2224159;64;20036;-85
2022/04/06 13:37:28;;;;;;;;;;;11.30;99.90;;;;;;2182288;65;20153;-77
2022/04/06 13:40:11;;;;;;;;;;;11.60;99.90;;;;;;2185672;65;20054;-81
2022/04/06 13:42:54;;;;;;;;;;;11.40;99.90;;;;;;2190907;65;20740;-77
2022/04/06 13:45:42;;;;;;;;;;;11.70;99.90;;;;;;2188948;65;20160;-78
2022/04/06 13:48:31;;;;;;;;;;;11.60;99.90;;;;;;2177422;65;20056;-80
2022/04/06 13:51:12;;;;;;;;;;;11.90;99.90;;;;;;2150150;66;20871;-79
2022/04/06 13:53:55;;;;;;;;;;;12.10;99.90;;;;;;2127789;67;20049;-80
2022/04/06 13:56:42;;;;;;;;;;;12.20;99.90;;;;;;2121011;67;20087;-80
2022/04/06 13:59:25;;;;;;;;;;;12.20;99.90;;;;;;2111137;67;20206;-84
2022/04/06 14:02:12;;;;;;;;;;;12.20;99.90;;;;;;2111687;67;20150;-86
2022/04/06 14:05:00;;;;;;;;;;;12.20;99.90;;;;;;2100713;68;20275;-88
2022/04/06 14:07:46;;;;;;;;;;;12.10;99.90;;;;;;2106231;68;20095;-87
2022/04/06 14:10:32;;;;;;;;;;;12.10;99.90;;;;;;2100362;68;20561;-87
2022/04/06 14:13:16;;;;;;;;;;;12.10;99.90;;;;;;2092747;68;20071;-86
2022/04/06 14:15:58;;;;;;;;;;;12.00;99.90;;;;;;2090379;68;20074;-81
2022/04/06 14:18:35;;;;;;;;;;;11.90;99.90;;;;;;2084358;68;20182;-86
2022/04/06 14:21:12;;;;;;;;;;;11.70;99.90;;;;;;2089798;67;20505;-78
2022/04/06 14:23:51;;;;;;;;;;;11.50;99.90;;;;;;2129866;67;20151;-77
2022/04/06 14:29:41;;;;;;;;;;;11.20;99.90;;;;;;2133069;66;20082;-78
2022/04/06 14:32:17;;;;;;;;;;;10.20;99.90;;;;;;2141001;66;20072;-80
2022/04/06 14:34:50;;;;;;;;;;;10.90;99.90;;;;;;2141807;66;20076;-78
2022/04/06 14:38:06;;;;;;;;;;;11.70;99.90;;;;;;2127970;67;20124;-84
2022/04/06 14:40:47;;;;;;;;;;;11.00;99.90;;;;;;2135301;67;20286;-83
2022/04/06 14:43:54;;;;;;;;;;;10.40;99.90;;;;;;2149570;66;20097;-84
2022/04/06 14:46:49;;;;;;;;;;;10.80;99.90;;;;;;2155367;65;20238;-83
2022/04/06 14:49:24;;;;;;;;;;;10.30;99.90;;;;;;2187013;65;20112;-84
2022/04/06 14:52:04;;;;;;;;;;;10.10;99.90;;;;;;2179616;65;20055;-81
2022/04/06 14:55:10;;;;;;;;;;;10.10;99.90;;;;;;2179210;65;20545;-83
2022/04/06 14:57:47;;;;;;;;;;;10.00;99.90;;;;;;2198530;65;20117;-82
2022/04/06 15:00:24;;;;;;;;;;;9.90;99.90;;;;;;2190525;65;20630;-83
2022/04/06 15:02:55;;;;;;;;;;;10.20;99.90;;;;;;2194374;65;20058;-80
2022/04/06 15:05:46;;;;;;;;;;;9.40;99.90;;;;;;2185260;65;20108;-77
2022/04/06 15:08:26;;;;;;;;;;;10.00;99.90;;;;;;2188897;65;20104;-78
2022/04/06 15:11:00;;;;;;;;;;;9.20;99.90;;;;;;2194059;65;20110;-78
2022/04/06 15:13:52;;;;;;;;;;;9.20;99.90;;;;;;2176842;65;20151;-80
2022/04/06 15:16:26;;;;;;;;;;;9.20;99.90;;;;;;2173194;65;20536;-83
2022/04/06 15:19:14;;;;;;;;;;;9.30;99.90;;;;;;2173071;65;20280;-85
2022/04/06 15:21:58;;;;;;;;;;;9.30;99.90;;;;;;2153254;66;20069;-85
2022/04/06 15:24:39;;;;;;;;;;;9.30;99.90;;;;;;2154156;66;20260;-85
2022/04/06 15:27:20;;;;;;;;;;;9.50;99.90;;;;;;2160452;66;20138;-84
2022/04/06 15:30:02;;;;;;;;;;;9.40;99.90;;;;;;2156368;66;20062;-82
2022/04/06 15:32:44;;;;;;;;;;;9.40;99.90;;;;;;2152920;66;20090;-80
2022/04/06 15:38:45;;;;;;;;;;;9.40;99.90;;;;;;2147618;66;20159;-80
2022/04/06 15:41:30;;;;;;;;;;;9.40;99.90;;;;;;2133754;67;20137;-80
2022/04/06 15:44:12;;;;;;;;;;;9.30;99.90;;;;;;2122877;67;20193;-80
2022/04/06 15:46:59;;;;;;;;;;;9.70;99.90;;;;;;2104568;67;20128;-79
2022/04/06 15:49:41;;;;;;;;;;;9.40;99.90;;;;;;2104309;67;20086;-81
2022/04/06 15:52:23;;;;;;;;;;;9.40;99.90;;;;;;2104092;67;20146;-84
2022/04/06 15:55:05;;;;;;;;;;;9.50;99.90;;;;;;2100361;68;20123;-81
2022/04/06 15:57:48;;;;;;;;;;;9.50;99.90;;;;;;2100202;68;20070;-83
2022/04/06 16:00:33;;;;;;;;;;;9.60;99.90;;;;;;2105325;67;20090;-83
2022/04/06 16:03:15;;;;;;;;;;;9.60;99.90;;;;;;2110060;67;20099;-85
2022/04/06 16:05:59;;;;;;;;;;;9.60;99.90;;;;;;2097244;68;20105;-81
2022/04/06 16:08:41;;;;;;;;;;;9.70;99.90;;;;;;2103405;68;20219;-82
2022/04/06 16:11:22;;;;;;;;;;;9.70;99.90;;;;;;2099959;68;20274;-84
2022/04/06 16:14:04;;;;;;;;;;;9.70;99.90;;;;;;2096783;68;20122;-82
2022/04/06 16:16:49;;;;;;;;;;;9.60;99.90;;;;;;2098444;68;20083;-85
2022/04/06 16:19:31;;;;;;;;;;;9.50;99.90;;;;;;2092141;68;20193;-84
2022/04/06 16:22:12;;;;;;;;;;;9.60;99.90;;;;;;2088848;68;20263;-84
2022/04/06 16:24:57;;;;;;;;;;;9.60;99.90;;;;;;2078972;68;20116;-83
2022/04/06 16:27:40;;;;;;;;;;;9.70;99.90;;;;;;2089582;68;20126;-81